createdAt,value
2018-04-27T00:00:13.416Z,1011.85
2018-04-27T00:01:13.437Z,1011.86
2018-04-27T00:02:13.456Z,1011.82
2018-04-27T00:03:13.474Z,1011.83
2018-04-27T00:04:13.494Z,1011.86
2018-04-27T00:05:13.511Z,1011.82
2018-04-27T00:06:13.543Z,1011.82
2018-04-27T00:07:13.550Z,1011.83
2018-04-27T00:08:13.568Z,1011.82
2018-04-27T00:09:13.607Z,1011.76
2018-04-27T00:10:13.609Z,1011.83
2018-04-27T00:11:13.629Z,1011.79
2018-04-27T00:12:13.645Z,1011.81
2018-04-27T00:13:13.672Z,1011.81
2018-04-27T00:14:13.687Z,1011.83
2018-04-27T00:15:13.707Z,1011.79
2018-04-27T00:16:13.723Z,1011.81
2018-04-27T00:17:13.734Z,1011.76
2018-04-27T00:18:13.762Z,1011.71
2018-04-27T00:19:13.782Z,1011.71
2018-04-27T00:20:13.806Z,1011.70
2018-04-27T00:21:13.820Z,1011.69
2018-04-27T00:22:13.838Z,1011.68
2018-04-27T00:23:13.864Z,1011.74
2018-04-27T00:24:13.873Z,1011.72
2018-04-27T00:25:13.896Z,1011.69
2018-04-27T00:26:13.922Z,1011.66
2018-04-27T00:27:13.935Z,1011.70
2018-04-27T00:28:13.953Z,1011.68
2018-04-27T00:29:13.973Z,1011.69
2018-04-27T00:30:13.992Z,1011.67
2018-04-27T00:31:14.027Z,1011.69
2018-04-27T00:32:14.032Z,1011.70
2018-04-27T00:33:14.049Z,1011.67
2018-04-27T00:34:14.146Z,1011.64
2018-04-27T00:35:14.090Z,1011.66
2018-04-27T00:36:14.111Z,1011.58
2018-04-27T00:37:14.134Z,1011.62
2018-04-27T00:38:14.150Z,1011.61
2018-04-27T00:39:14.166Z,1011.61
2018-04-27T00:40:14.187Z,1011.58
2018-04-27T00:41:14.203Z,1011.55
2018-04-27T00:42:14.246Z,1011.54
2018-04-27T00:43:14.243Z,1011.56
2018-04-27T00:44:14.261Z,1011.55
2018-04-27T00:45:14.276Z,1011.52
2018-04-27T00:46:14.306Z,1011.48
2018-04-27T00:47:14.322Z,1011.51
2018-04-27T00:48:14.344Z,1011.49
2018-04-27T00:49:14.359Z,1011.47
2018-04-27T00:50:14.397Z,1011.45
2018-04-27T00:51:14.392Z,1011.47
2018-04-27T00:52:14.431Z,1011.44
2018-04-27T00:53:14.434Z,1011.44
2018-04-27T00:54:14.468Z,1011.38
2018-04-27T00:55:14.476Z,1011.39
2018-04-27T00:56:14.495Z,1011.34
2018-04-27T00:57:14.510Z,1011.36
2018-04-27T00:58:14.531Z,1011.34
2018-04-27T00:59:14.559Z,1011.37
2018-04-27T01:00:14.564Z,1011.38
2018-04-27T01:01:14.590Z,1011.35
2018-04-27T01:02:14.608Z,1011.37
2018-04-27T01:03:14.626Z,1011.34
2018-04-27T01:04:14.657Z,1011.35
2018-04-27T01:05:14.665Z,1011.33
2018-04-27T01:06:14.682Z,1011.30
2018-04-27T01:07:14.700Z,1011.31
2018-04-27T01:08:14.721Z,1011.29
2018-04-27T01:09:14.744Z,1011.28
2018-04-27T01:10:14.764Z,1011.30
2018-04-27T01:11:14.785Z,1011.29
2018-04-27T01:12:14.799Z,1011.30
2018-04-27T01:13:14.816Z,1011.29
2018-04-27T01:14:14.838Z,1011.30
2018-04-27T01:15:14.861Z,1011.29
2018-04-27T01:16:14.878Z,1011.27
2018-04-27T01:17:14.893Z,1011.26
2018-04-27T01:18:14.917Z,1011.26
2018-04-27T01:19:14.938Z,1011.26
2018-04-27T01:20:14.953Z,1011.23
2018-04-27T01:21:14.981Z,1011.22
2018-04-27T01:22:14.993Z,1011.20
2018-04-27T01:23:15.006Z,1011.23
2018-04-27T01:24:15.034Z,1011.23
2018-04-27T01:25:15.059Z,1011.22
2018-04-27T01:26:15.073Z,1011.26
2018-04-27T01:27:15.087Z,1011.23
2018-04-27T01:28:15.106Z,1011.24
2018-04-27T01:29:15.138Z,1011.21
2018-04-27T01:30:15.153Z,1011.20
2018-04-27T01:31:15.159Z,1011.22
2018-04-27T01:32:15.189Z,1011.22
2018-04-27T01:33:15.208Z,1011.20
2018-04-27T01:34:15.221Z,1011.21
2018-04-27T01:35:15.242Z,1011.25
2018-04-27T01:36:15.259Z,1011.21
2018-04-27T01:37:15.281Z,1011.25
2018-04-27T01:38:15.305Z,1011.25
2018-04-27T01:39:15.319Z,1011.22
2018-04-27T01:40:15.337Z,1011.21
2018-04-27T01:41:15.351Z,1011.21
2018-04-27T01:42:15.373Z,1011.22
2018-04-27T01:43:15.398Z,1011.21
2018-04-27T01:44:15.407Z,1011.22
2018-04-27T01:45:15.433Z,1011.17
2018-04-27T01:46:15.452Z,1011.18
2018-04-27T01:47:15.468Z,1011.15
2018-04-27T01:48:15.499Z,1011.20
2018-04-27T01:49:15.506Z,1011.11
2018-04-27T01:50:15.530Z,1011.13
2018-04-27T01:51:15.549Z,1011.14
2018-04-27T01:52:15.564Z,1011.13
2018-04-27T01:53:15.587Z,1011.12
2018-04-27T01:54:15.604Z,1011.11
2018-04-27T01:55:15.623Z,1011.12
2018-04-27T01:56:15.639Z,1011.16
2018-04-27T01:57:15.668Z,1011.09
2018-04-27T01:58:15.687Z,1011.09
2018-04-27T01:59:15.705Z,1011.11
2018-04-27T02:00:15.717Z,1011.05
2018-04-27T02:01:15.743Z,1011.11
2018-04-27T02:02:15.765Z,1011.05
2018-04-27T02:03:15.777Z,1011.02
2018-04-27T02:04:15.793Z,1011.02
2018-04-27T02:05:15.807Z,1011.04
2018-04-27T02:06:15.835Z,1011.05
2018-04-27T02:07:15.857Z,1011.05
2018-04-27T02:08:15.872Z,1011.03
2018-04-27T02:09:15.892Z,1011.02
2018-04-27T02:10:15.913Z,1011.07
2018-04-27T02:11:15.935Z,1011.03
2018-04-27T02:12:15.954Z,1011.08
2018-04-27T02:13:15.971Z,1011.00
2018-04-27T02:14:15.989Z,1011.03
2018-04-27T02:15:16.001Z,1011.01
2018-04-27T02:16:16.028Z,1011.01
2018-04-27T02:17:16.076Z,1010.97
2018-04-27T02:18:16.067Z,1010.92
2018-04-27T02:19:16.081Z,1010.97
2018-04-27T02:20:16.101Z,1010.94
2018-04-27T02:21:16.123Z,1010.97
2018-04-27T02:22:16.145Z,1010.94
2018-04-27T02:23:16.157Z,1010.97
2018-04-27T02:24:16.183Z,1010.92
2018-04-27T02:25:16.199Z,1010.92
2018-04-27T02:26:16.219Z,1010.90
2018-04-27T02:27:16.246Z,1010.86
2018-04-27T02:28:16.258Z,1010.85
2018-04-27T02:29:16.330Z,1010.88
2018-04-27T02:30:16.305Z,1010.89
2018-04-27T02:31:16.315Z,1010.90
2018-04-27T02:32:16.340Z,1010.89
2018-04-27T02:33:16.359Z,1010.86
2018-04-27T02:34:16.392Z,1010.88
2018-04-27T02:35:16.397Z,1010.87
2018-04-27T02:36:16.407Z,1010.87
2018-04-27T02:37:16.417Z,1010.86
2018-04-27T02:38:16.455Z,1010.88
2018-04-27T02:39:16.466Z,1010.81
2018-04-27T02:40:16.495Z,1010.82
2018-04-27T02:41:16.503Z,1010.83
2018-04-27T02:42:16.523Z,1010.81
2018-04-27T02:43:16.542Z,1010.83
2018-04-27T02:44:16.561Z,1010.83
2018-04-27T02:45:16.579Z,1010.79
2018-04-27T02:46:16.598Z,1010.82
2018-04-27T02:47:16.618Z,1010.79
2018-04-27T02:48:16.639Z,1010.73
2018-04-27T02:49:16.664Z,1010.77
2018-04-27T02:50:16.678Z,1010.76
2018-04-27T02:51:16.704Z,1010.75
2018-04-27T02:52:16.712Z,1010.77
2018-04-27T02:53:16.732Z,1010.74
2018-04-27T02:54:16.747Z,1010.73
2018-04-27T02:55:16.776Z,1010.69
2018-04-27T02:56:16.792Z,1010.69
2018-04-27T02:57:16.859Z,1010.71
2018-04-27T02:58:16.833Z,1010.68
2018-04-27T02:59:16.850Z,1010.66
2018-04-27T03:00:16.902Z,1010.66
2018-04-27T03:01:16.880Z,1010.66
2018-04-27T03:02:16.907Z,1010.65
2018-04-27T03:03:16.942Z,1010.64
2018-04-27T03:04:16.943Z,1010.66
2018-04-27T03:05:16.964Z,1010.64
2018-04-27T03:06:17.016Z,1010.60
2018-04-27T03:07:17.003Z,1010.60
2018-04-27T03:08:17.019Z,1010.56
2018-04-27T03:09:17.039Z,1010.59
2018-04-27T03:10:17.059Z,1010.58
2018-04-27T03:11:17.074Z,1010.54
2018-04-27T03:12:17.103Z,1010.56
2018-04-27T03:13:17.112Z,1010.55
2018-04-27T03:14:17.126Z,1010.53
2018-04-27T03:15:17.156Z,1010.49
2018-04-27T03:16:17.172Z,1010.46
2018-04-27T03:17:17.192Z,1010.45
2018-04-27T03:18:17.204Z,1010.45
2018-04-27T03:19:17.228Z,1010.41
2018-04-27T03:20:17.251Z,1010.37
2018-04-27T03:21:17.267Z,1010.36
2018-04-27T03:22:17.292Z,1010.33
2018-04-27T03:23:17.359Z,1010.35
2018-04-27T03:24:17.324Z,1010.39
2018-04-27T03:25:17.344Z,1010.37
2018-04-27T03:26:17.360Z,1010.35
2018-04-27T03:27:17.373Z,1010.33
2018-04-27T03:28:17.407Z,1010.33
2018-04-27T03:29:17.423Z,1010.32
2018-04-27T03:30:17.440Z,1010.32
2018-04-27T03:31:17.453Z,1010.27
2018-04-27T03:32:17.476Z,1010.29
2018-04-27T03:33:17.494Z,1010.24
2018-04-27T03:34:17.537Z,1010.28
2018-04-27T03:35:17.532Z,1010.26
2018-04-27T03:36:17.556Z,1010.21
2018-04-27T03:37:17.573Z,1010.20
2018-04-27T03:38:17.592Z,1010.20
2018-04-27T03:39:17.609Z,1010.19
2018-04-27T03:40:17.633Z,1010.18
2018-04-27T03:41:17.659Z,1010.23
2018-04-27T03:42:17.677Z,1010.19
2018-04-27T03:43:17.694Z,1010.18
2018-04-27T03:44:17.698Z,1010.16
2018-04-27T03:45:17.806Z,1010.20
2018-04-27T03:46:17.748Z,1010.15
2018-04-27T03:47:17.766Z,1010.17
2018-04-27T03:48:17.772Z,1010.19
2018-04-27T03:49:17.799Z,1010.19
2018-04-27T03:50:17.828Z,1010.19
2018-04-27T03:51:17.838Z,1010.16
2018-04-27T03:52:17.850Z,1010.14
2018-04-27T03:53:17.877Z,1010.15
2018-04-27T03:54:17.902Z,1010.12
2018-04-27T03:55:17.917Z,1010.09
2018-04-27T03:56:17.930Z,1010.09
2018-04-27T03:57:17.950Z,1010.13
2018-04-27T03:58:17.982Z,1010.15
2018-04-27T03:59:18.006Z,1010.10
2018-04-27T04:00:18.009Z,1010.12
2018-04-27T04:01:18.049Z,1010.09
2018-04-27T04:02:18.051Z,1010.06
2018-04-27T04:03:18.068Z,1010.05
2018-04-27T04:04:18.127Z,1010.02
2018-04-27T04:05:18.100Z,1010.03
2018-04-27T04:06:18.136Z,1010.02
2018-04-27T04:07:18.147Z,1009.98
2018-04-27T04:08:18.155Z,1009.98
2018-04-27T04:09:18.178Z,1009.97
2018-04-27T04:10:18.202Z,1009.98
2018-04-27T04:11:18.219Z,1010.03
2018-04-27T04:12:18.243Z,1009.96
2018-04-27T04:13:18.259Z,1009.97
2018-04-27T04:14:18.270Z,1009.99
2018-04-27T04:15:18.302Z,1010.01
2018-04-27T04:16:18.346Z,1009.98
2018-04-27T04:17:18.328Z,1010.01
2018-04-27T04:18:18.366Z,1009.96
2018-04-27T04:19:18.374Z,1009.98
2018-04-27T04:20:18.396Z,1009.98
2018-04-27T04:21:18.415Z,1009.94
2018-04-27T04:22:18.448Z,1009.96
2018-04-27T04:23:18.452Z,1009.92
2018-04-27T04:24:18.467Z,1009.93
2018-04-27T04:25:18.488Z,1009.93
2018-04-27T04:26:18.533Z,1009.90
2018-04-27T04:27:18.529Z,1009.94
2018-04-27T04:28:18.542Z,1009.93
2018-04-27T04:29:18.562Z,1009.96
2018-04-27T04:30:18.576Z,1009.95
2018-04-27T04:31:18.607Z,1009.90
2018-04-27T04:32:18.660Z,1009.88
2018-04-27T04:33:18.651Z,1009.87
2018-04-27T04:34:18.657Z,1009.83
2018-04-27T04:35:18.678Z,1009.82
2018-04-27T04:36:18.698Z,1009.85
2018-04-27T04:37:18.718Z,1009.87
2018-04-27T04:38:18.826Z,1009.86
2018-04-27T04:39:18.756Z,1009.85
2018-04-27T04:40:18.772Z,1009.83
2018-04-27T04:41:18.792Z,1009.83
2018-04-27T04:42:18.806Z,1009.83
2018-04-27T04:43:18.818Z,1009.80
2018-04-27T04:44:18.853Z,1009.74
2018-04-27T04:45:18.875Z,1009.70
2018-04-27T04:46:18.893Z,1009.72
2018-04-27T04:47:18.901Z,1009.70
2018-04-27T04:48:18.928Z,1009.67
2018-04-27T04:49:18.944Z,1009.65
2018-04-27T04:50:18.968Z,1009.63
2018-04-27T04:51:18.977Z,1009.67
2018-04-27T04:52:19.043Z,1009.68
2018-04-27T04:53:19.016Z,1009.70
2018-04-27T04:54:19.038Z,1009.74
2018-04-27T04:55:19.057Z,1009.65
2018-04-27T04:56:19.155Z,1009.64
2018-04-27T04:57:19.095Z,1009.65
2018-04-27T04:58:19.120Z,1009.65
2018-04-27T04:59:19.129Z,1009.66
2018-04-27T05:00:19.171Z,1009.62
2018-04-27T05:01:19.177Z,1009.63
2018-04-27T05:02:19.195Z,1009.62
2018-04-27T05:03:19.206Z,1009.60
2018-04-27T05:04:19.225Z,1009.65
2018-04-27T05:05:19.254Z,1009.62
2018-04-27T05:06:19.269Z,1009.68
2018-04-27T05:07:19.280Z,1009.64
2018-04-27T05:08:19.344Z,1009.65
2018-04-27T05:09:19.324Z,1009.65
2018-04-27T05:10:19.365Z,1009.67
2018-04-27T05:11:19.366Z,1009.68
2018-04-27T05:12:19.380Z,1009.64
2018-04-27T05:13:19.401Z,1009.65
2018-04-27T05:14:19.423Z,1009.61
2018-04-27T05:15:19.439Z,1009.61
2018-04-27T05:16:19.460Z,1009.61
2018-04-27T05:17:19.477Z,1009.61
2018-04-27T05:18:19.496Z,1009.64
2018-04-27T05:19:19.519Z,1009.61
2018-04-27T05:20:19.533Z,1009.59
2018-04-27T05:21:19.542Z,1009.58
2018-04-27T05:22:19.568Z,1009.56
2018-04-27T05:23:19.589Z,1009.58
2018-04-27T05:24:19.663Z,1009.64
2018-04-27T05:25:19.628Z,1009.63
2018-04-27T05:26:19.647Z,1009.68
2018-04-27T05:27:19.722Z,1009.67
2018-04-27T05:28:19.685Z,1009.65
2018-04-27T05:29:19.702Z,1009.66
2018-04-27T05:30:19.721Z,1009.67
2018-04-27T05:31:19.743Z,1009.62
2018-04-27T05:32:19.758Z,1009.61
2018-04-27T05:33:19.772Z,1009.59
2018-04-27T05:34:19.802Z,1009.58
2018-04-27T05:35:19.826Z,1009.54
2018-04-27T05:36:19.835Z,1009.54
2018-04-27T05:37:19.859Z,1009.52
2018-04-27T05:38:19.882Z,1009.58
2018-04-27T05:39:19.888Z,1009.50
2018-04-27T05:40:19.924Z,1009.52
2018-04-27T05:41:19.941Z,1009.49
2018-04-27T05:42:19.952Z,1009.49
2018-04-27T05:43:19.971Z,1009.43
2018-04-27T05:44:19.985Z,1009.47
2018-04-27T05:45:20.014Z,1009.48
2018-04-27T05:46:20.020Z,1009.44
2018-04-27T05:47:20.047Z,1009.43
2018-04-27T05:48:20.091Z,1009.44
2018-04-27T05:49:20.082Z,1009.46
2018-04-27T05:50:20.104Z,1009.38
2018-04-27T05:51:20.126Z,1009.44
2018-04-27T05:52:20.140Z,1009.44
2018-04-27T05:53:20.165Z,1009.40
2018-04-27T05:54:20.178Z,1009.47
2018-04-27T05:55:20.196Z,1009.44
2018-04-27T05:56:20.214Z,1009.40
2018-04-27T05:57:20.225Z,1009.42
2018-04-27T05:58:20.253Z,1009.38
2018-04-27T05:59:20.265Z,1009.40
2018-04-27T06:00:20.312Z,1009.35
2018-04-27T06:01:20.314Z,1009.34
2018-04-27T06:02:20.332Z,1009.34
2018-04-27T06:03:20.345Z,1009.31
2018-04-27T06:04:20.370Z,1009.29
2018-04-27T06:05:20.387Z,1009.32
2018-04-27T06:06:20.410Z,1009.26
2018-04-27T06:07:20.427Z,1009.26
2018-04-27T06:08:20.517Z,1009.25
2018-04-27T06:09:20.468Z,1009.22
2018-04-27T06:10:20.482Z,1009.22
2018-04-27T06:11:20.515Z,1009.17
2018-04-27T06:12:20.520Z,1009.20
2018-04-27T06:13:20.537Z,1009.19
2018-04-27T06:14:20.558Z,1009.20
2018-04-27T06:15:20.574Z,1009.16
2018-04-27T06:16:20.594Z,1009.14
2018-04-27T06:17:20.618Z,1009.14
2018-04-27T06:18:20.632Z,1009.15
2018-04-27T06:19:20.651Z,1009.13
2018-04-27T06:20:20.671Z,1009.19
2018-04-27T06:21:20.685Z,1009.16
2018-04-27T06:22:20.708Z,1009.16
2018-04-27T06:23:20.720Z,1009.17
2018-04-27T06:24:20.756Z,1009.18
2018-04-27T06:25:20.768Z,1009.15
2018-04-27T06:26:20.824Z,1009.17
2018-04-27T06:27:20.824Z,1009.18
2018-04-27T06:28:20.832Z,1009.21
2018-04-27T06:29:20.844Z,1009.20
2018-04-27T06:30:20.855Z,1009.19
2018-04-27T06:31:20.881Z,1009.21
2018-04-27T06:32:20.909Z,1009.18
2018-04-27T06:33:20.934Z,1009.15
2018-04-27T06:34:20.938Z,1009.14
2018-04-27T06:35:20.955Z,1009.14
2018-04-27T06:36:20.974Z,1009.12
2018-04-27T06:37:21.034Z,1009.09
2018-04-27T06:38:21.010Z,1009.06
2018-04-27T06:39:21.080Z,1009.07
2018-04-27T06:40:21.055Z,1009.04
2018-04-27T06:41:21.071Z,1009.04
2018-04-27T06:42:21.092Z,1009.01
2018-04-27T06:43:21.158Z,1009.03
2018-04-27T06:44:21.126Z,1009.02
2018-04-27T06:45:21.147Z,1008.97
2018-04-27T06:46:21.165Z,1008.99
2018-04-27T06:47:21.176Z,1009.00
2018-04-27T06:48:21.202Z,1008.96
2018-04-27T06:49:21.223Z,1008.94
2018-04-27T06:50:21.239Z,1008.91
2018-04-27T06:51:21.256Z,1008.92
2018-04-27T06:52:21.272Z,1008.87
2018-04-27T06:53:21.304Z,1008.86
2018-04-27T06:54:21.303Z,1008.87
2018-04-27T06:55:21.336Z,1008.80
2018-04-27T06:56:21.350Z,1008.80
2018-04-27T06:57:21.372Z,1008.79
2018-04-27T06:58:21.389Z,1008.83
2018-04-27T06:59:21.415Z,1008.84
2018-04-27T07:00:21.427Z,1008.84
2018-04-27T07:01:21.445Z,1008.84
2018-04-27T07:02:21.497Z,1008.85
2018-04-27T07:03:21.492Z,1008.86
2018-04-27T07:04:21.494Z,1008.85
2018-04-27T07:05:21.585Z,1008.80
2018-04-27T07:06:21.542Z,1008.84
2018-04-27T07:07:21.560Z,1008.83
2018-04-27T07:08:21.614Z,1008.81
2018-04-27T07:09:21.597Z,1008.83
2018-04-27T07:10:21.625Z,1008.82
2018-04-27T07:11:21.639Z,1008.81
2018-04-27T07:12:21.651Z,1008.85
2018-04-27T07:13:21.670Z,1008.81
2018-04-27T07:14:21.691Z,1008.82
2018-04-27T07:15:21.741Z,1008.77
2018-04-27T07:16:21.731Z,1008.78
2018-04-27T07:17:21.754Z,1008.76
2018-04-27T07:18:21.782Z,1008.74
2018-04-27T07:19:21.798Z,1008.71
2018-04-27T07:20:21.803Z,1008.70
2018-04-27T07:21:21.819Z,1008.64
2018-04-27T07:22:21.848Z,1008.67
2018-04-27T07:23:21.865Z,1008.64
2018-04-27T07:24:21.880Z,1008.65
2018-04-27T07:25:21.900Z,1008.61
2018-04-27T07:26:21.919Z,1008.61
2018-04-27T07:27:21.929Z,1008.58
2018-04-27T07:28:21.953Z,1008.55
2018-04-27T07:29:21.973Z,1008.51
2018-04-27T07:30:21.997Z,1008.50
2018-04-27T07:31:22.009Z,1008.50
2018-04-27T07:32:22.031Z,1008.47
2018-04-27T07:33:22.046Z,1008.47
2018-04-27T07:34:22.072Z,1008.41
2018-04-27T07:35:22.090Z,1008.42
2018-04-27T07:36:22.161Z,1008.41
2018-04-27T07:37:22.123Z,1008.41
2018-04-27T07:38:22.145Z,1008.41
2018-04-27T07:39:22.170Z,1008.37
2018-04-27T07:40:22.189Z,1008.42
2018-04-27T07:41:22.201Z,1008.41
2018-04-27T07:42:22.227Z,1008.41
2018-04-27T07:43:22.245Z,1008.40
2018-04-27T07:44:22.266Z,1008.33
2018-04-27T07:45:22.350Z,1008.33
2018-04-27T07:46:22.298Z,1008.29
2018-04-27T07:47:22.306Z,1008.29
2018-04-27T07:48:22.333Z,1008.29
2018-04-27T07:49:22.357Z,1008.23
2018-04-27T07:50:22.368Z,1008.26
2018-04-27T07:51:22.384Z,1008.24
2018-04-27T07:52:22.417Z,1008.22
2018-04-27T07:53:22.425Z,1008.24
2018-04-27T07:54:22.445Z,1008.20
2018-04-27T07:55:22.492Z,1008.20
2018-04-27T07:56:22.486Z,1008.22
2018-04-27T07:57:22.501Z,1008.23
2018-04-27T07:58:22.526Z,1008.26
2018-04-27T07:59:22.540Z,1008.22
2018-04-27T08:00:22.559Z,1008.25
2018-04-27T08:01:22.583Z,1008.18
2018-04-27T08:02:22.627Z,1008.22
2018-04-27T08:03:22.614Z,1008.21
2018-04-27T08:04:22.642Z,1008.22
2018-04-27T08:05:22.720Z,1008.23
2018-04-27T08:06:22.681Z,1008.18
2018-04-27T08:07:22.697Z,1008.15
2018-04-27T08:08:22.711Z,1008.19
2018-04-27T08:09:22.736Z,1008.15
2018-04-27T08:10:22.775Z,1008.13
2018-04-27T08:11:22.819Z,1008.12
2018-04-27T08:12:22.779Z,1008.15
2018-04-27T08:13:22.804Z,1008.15
2018-04-27T08:14:22.825Z,1008.16
2018-04-27T08:15:22.842Z,1008.10
2018-04-27T08:16:22.862Z,1008.09
2018-04-27T08:17:22.879Z,1008.08
2018-04-27T08:18:22.899Z,1008.08
2018-04-27T08:19:22.912Z,1008.10
2018-04-27T08:20:22.959Z,1008.08
2018-04-27T08:21:22.958Z,1008.05
2018-04-27T08:22:22.975Z,1008.07
2018-04-27T08:23:22.995Z,1008.03
2018-04-27T08:24:23.012Z,1008.06
2018-04-27T08:25:23.035Z,1008.06
2018-04-27T08:26:23.053Z,1008.02
2018-04-27T08:27:23.069Z,1008.02
2018-04-27T08:28:23.088Z,1008.01
2018-04-27T08:29:23.110Z,1008.04
2018-04-27T08:30:23.133Z,1008.03
2018-04-27T08:31:23.142Z,1007.95
2018-04-27T08:32:23.245Z,1008.00
2018-04-27T08:33:23.192Z,1007.94
2018-04-27T08:34:23.223Z,1007.97
2018-04-27T08:35:23.225Z,1007.92
2018-04-27T08:36:23.262Z,1007.96
2018-04-27T08:37:23.258Z,1007.99
2018-04-27T08:38:23.280Z,1007.92
2018-04-27T08:39:23.299Z,1007.94
2018-04-27T08:40:23.318Z,1007.89
2018-04-27T08:41:23.333Z,1007.81
2018-04-27T08:42:23.355Z,1007.82
2018-04-27T08:43:23.383Z,1007.80
2018-04-27T08:44:23.395Z,1007.85
2018-04-27T08:45:23.414Z,1007.78
2018-04-27T08:46:23.443Z,1007.79
2018-04-27T08:47:23.511Z,1007.78
2018-04-27T08:48:23.470Z,1007.80
2018-04-27T08:49:23.488Z,1007.76
2018-04-27T08:50:23.607Z,1007.79
2018-04-27T08:51:23.537Z,1007.79
2018-04-27T08:52:23.548Z,1007.84
2018-04-27T08:53:23.552Z,1007.76
2018-04-27T08:54:23.581Z,1007.78
2018-04-27T08:55:23.593Z,1007.73
2018-04-27T08:56:23.617Z,1007.76
2018-04-27T08:57:23.634Z,1007.73
2018-04-27T08:58:23.667Z,1007.79
2018-04-27T08:59:23.673Z,1007.80
2018-04-27T09:00:23.689Z,1007.76
2018-04-27T09:01:23.717Z,1007.74
2018-04-27T09:02:23.744Z,1007.73
2018-04-27T09:03:23.742Z,1007.75
2018-04-27T09:04:23.836Z,1007.68
2018-04-27T09:05:23.783Z,1007.67
2018-04-27T09:06:23.881Z,1007.68
2018-04-27T09:07:23.829Z,1007.65
2018-04-27T09:08:23.870Z,1007.63
2018-04-27T09:09:23.864Z,1007.66
2018-04-27T09:10:23.891Z,1007.62
2018-04-27T09:11:23.892Z,1007.65
2018-04-27T09:12:23.926Z,1007.60
2018-04-27T09:13:23.943Z,1007.54
2018-04-27T09:14:23.967Z,1007.53
2018-04-27T09:15:23.976Z,1007.44
2018-04-27T09:16:24.011Z,1007.43
2018-04-27T09:17:24.020Z,1007.44
2018-04-27T09:18:24.037Z,1007.36
2018-04-27T09:19:24.048Z,1007.33
2018-04-27T09:20:24.075Z,1007.36
2018-04-27T09:21:24.096Z,1007.31
2018-04-27T09:22:24.114Z,1007.34
2018-04-27T09:23:24.129Z,1007.32
2018-04-27T09:24:24.152Z,1007.35
2018-04-27T09:25:24.194Z,1007.37
2018-04-27T09:26:24.187Z,1007.33
2018-04-27T09:27:24.209Z,1007.34
2018-04-27T09:28:24.223Z,1007.32
2018-04-27T09:29:24.246Z,1007.31
2018-04-27T09:30:24.259Z,1007.31
2018-04-27T09:31:24.277Z,1007.31
2018-04-27T09:32:24.310Z,1007.29
2018-04-27T09:33:24.307Z,1007.24
2018-04-27T09:34:24.362Z,1007.20
2018-04-27T09:35:24.358Z,1007.22
2018-04-27T09:36:24.476Z,1007.18
2018-04-27T09:37:24.387Z,1007.19
2018-04-27T09:38:24.414Z,1007.18
2018-04-27T09:39:24.446Z,1007.14
2018-04-27T09:40:24.451Z,1007.15
2018-04-27T09:41:24.475Z,1007.12
2018-04-27T09:42:24.493Z,1007.10
2018-04-27T09:43:24.501Z,1007.07
2018-04-27T09:44:24.524Z,1007.09
2018-04-27T09:45:24.542Z,1007.08
2018-04-27T09:46:24.564Z,1007.01
2018-04-27T09:47:24.580Z,1007.07
2018-04-27T09:48:24.605Z,1007.09
2018-04-27T09:49:24.623Z,1007.10
2018-04-27T09:50:24.642Z,1007.08
2018-04-27T09:51:24.657Z,1007.03
2018-04-27T09:52:24.675Z,1007.00
2018-04-27T09:53:24.687Z,1006.97
2018-04-27T09:54:24.715Z,1006.93
2018-04-27T09:55:24.728Z,1006.89
2018-04-27T09:56:24.751Z,1006.91
2018-04-27T09:57:24.809Z,1006.86
2018-04-27T09:58:24.790Z,1006.80
2018-04-27T09:59:24.805Z,1006.81
2018-04-27T10:00:24.825Z,1006.78
2018-04-27T10:01:24.836Z,1006.70
2018-04-27T10:02:24.855Z,1006.63
2018-04-27T10:03:24.883Z,1006.70
2018-04-27T10:04:24.897Z,1006.71
2018-04-27T10:05:24.922Z,1006.68
2018-04-27T10:06:24.941Z,1006.60
2018-04-27T10:07:24.957Z,1006.57
2018-04-27T10:08:24.974Z,1006.54
2018-04-27T10:09:24.996Z,1006.58
2018-04-27T10:10:25.011Z,1006.55
2018-04-27T10:11:25.028Z,1006.52
2018-04-27T10:12:25.052Z,1006.49
2018-04-27T10:13:25.070Z,1006.46
2018-04-27T10:14:25.093Z,1006.47
2018-04-27T10:15:25.107Z,1006.50
2018-04-27T10:16:25.128Z,1006.41
2018-04-27T10:17:25.147Z,1006.48
2018-04-27T10:18:25.156Z,1006.43
2018-04-27T10:19:25.179Z,1006.44
2018-04-27T10:20:25.278Z,1006.46
2018-04-27T10:21:25.213Z,1006.37
2018-04-27T10:22:25.243Z,1006.35
2018-04-27T10:23:25.259Z,1006.35
2018-04-27T10:24:25.285Z,1006.28
2018-04-27T10:25:25.293Z,1006.24
2018-04-27T10:26:25.328Z,1006.17
2018-04-27T10:27:25.335Z,1006.20
2018-04-27T10:28:25.345Z,1006.09
2018-04-27T10:29:25.385Z,1006.16
2018-04-27T10:30:25.394Z,1006.16
2018-04-27T10:31:25.402Z,1006.20
2018-04-27T10:32:25.559Z,1006.23
2018-04-27T10:33:25.451Z,1006.28
2018-04-27T10:34:25.473Z,1006.18
2018-04-27T10:35:25.482Z,1006.18
2018-04-27T10:36:25.503Z,1006.11
2018-04-27T10:37:25.523Z,1006.13
2018-04-27T10:38:25.541Z,1006.08
2018-04-27T10:39:25.581Z,1006.04
2018-04-27T10:40:25.576Z,1006.03
2018-04-27T10:41:25.592Z,1006.03
2018-04-27T10:42:25.618Z,1005.98
2018-04-27T10:43:25.632Z,1006.04
2018-04-27T10:44:25.650Z,1006.02
2018-04-27T10:45:25.760Z,1006.07
2018-04-27T10:46:25.684Z,1006.03
2018-04-27T10:47:25.715Z,1006.03
2018-04-27T10:48:25.732Z,1006.04
2018-04-27T10:49:25.754Z,1006.03
2018-04-27T10:50:25.778Z,1006.02
2018-04-27T10:51:25.855Z,1006.05
2018-04-27T10:52:25.822Z,1006.09
2018-04-27T10:53:25.815Z,1006.14
2018-04-27T10:54:25.846Z,1006.09
2018-04-27T10:55:25.859Z,1006.05
2018-04-27T10:56:25.876Z,1006.02
2018-04-27T10:57:25.894Z,1006.00
2018-04-27T10:58:25.916Z,1006.00
2018-04-27T10:59:25.934Z,1006.04
2018-04-27T11:00:25.948Z,1005.98
2018-04-27T11:01:25.993Z,1005.96
2018-04-27T11:02:25.991Z,1006.02
2018-04-27T11:03:26.094Z,1005.95
2018-04-27T11:04:26.037Z,1005.95
2018-04-27T11:05:26.054Z,1005.84
2018-04-27T11:06:26.066Z,1005.81
2018-04-27T11:07:26.091Z,1005.80
2018-04-27T11:08:26.114Z,1005.70
2018-04-27T11:09:26.137Z,1005.62
2018-04-27T11:10:26.133Z,1005.59
2018-04-27T11:11:26.163Z,1005.61
2018-04-27T11:12:26.182Z,1005.50
2018-04-27T11:13:26.204Z,1005.49
2018-04-27T11:14:26.225Z,1005.47
2018-04-27T11:15:26.234Z,1005.48
2018-04-27T11:16:26.258Z,1005.50
2018-04-27T11:17:26.274Z,1005.51
2018-04-27T11:18:26.292Z,1005.48
2018-04-27T11:19:26.304Z,1005.52
2018-04-27T11:20:26.329Z,1005.53
2018-04-27T11:21:26.351Z,1005.56
2018-04-27T11:22:26.373Z,1005.46
2018-04-27T11:23:26.388Z,1005.50
2018-04-27T11:24:26.408Z,1005.44
2018-04-27T11:25:26.441Z,1005.46
2018-04-27T11:26:26.435Z,1005.41
2018-04-27T11:27:26.469Z,1005.44
2018-04-27T11:28:26.475Z,1005.38
2018-04-27T11:29:26.504Z,1005.46
2018-04-27T11:30:26.520Z,1005.38
2018-04-27T11:31:26.539Z,1005.36
2018-04-27T11:32:26.559Z,1005.34
2018-04-27T11:33:26.576Z,1005.30
2018-04-27T11:34:26.592Z,1005.26
2018-04-27T11:35:26.619Z,1005.30
2018-04-27T11:36:26.624Z,1005.31
2018-04-27T11:37:26.652Z,1005.31
2018-04-27T11:38:26.678Z,1005.30
2018-04-27T11:39:26.705Z,1005.31
2018-04-27T11:40:26.708Z,1005.32
2018-04-27T11:41:26.745Z,1005.27
2018-04-27T11:42:26.750Z,1005.26
2018-04-27T11:43:26.779Z,1005.26
2018-04-27T11:44:26.809Z,1005.28
2018-04-27T11:45:26.796Z,1005.27
2018-04-27T11:46:26.821Z,1005.16
2018-04-27T11:47:26.841Z,1005.13
2018-04-27T11:48:26.859Z,1005.12
2018-04-27T11:49:26.954Z,1005.04
2018-04-27T11:50:26.901Z,1005.03
2018-04-27T11:51:26.912Z,1004.96
2018-04-27T11:52:26.926Z,1004.98
2018-04-27T11:53:26.971Z,1004.91
2018-04-27T11:54:26.984Z,1004.88
2018-04-27T11:55:27.001Z,1004.98
2018-04-27T11:56:27.014Z,1004.95
2018-04-27T11:57:27.027Z,1004.97
2018-04-27T11:58:27.042Z,1004.94
2018-04-27T11:59:27.067Z,1004.93
2018-04-27T12:00:27.084Z,1004.92
2018-04-27T12:01:27.097Z,1004.95
2018-04-27T12:02:27.126Z,1004.92
2018-04-27T12:03:27.149Z,1004.83
2018-04-27T12:04:27.165Z,1004.85
2018-04-27T12:05:27.180Z,1004.81